sensor_id;sensor_type;location;lat;lon;timestamp;pressure;altitude;pressure_sealevel;temperature;humidity
83488;BME280;73424;49.994;8.184;2024-03-29T00:01:48;98154.59;;;5.73;78.67
83488;BME280;73424;49.994;8.184;2024-03-29T00:04:13;98142.16;;;5.42;78.56
83488;BME280;73424;49.994;8.184;2024-03-29T00:06:38;98160.94;;;5.27;79.37
83488;BME280;73424;49.994;8.184;2024-03-29T00:09:04;98122.72;;;5.23;79.45
83488;BME280;73424;49.994;8.184;2024-03-29T00:11:29;98101.97;;;5.27;79.49
83488;BME280;73424;49.994;8.184;2024-03-29T00:13:56;98117.13;;;5.13;81.10
83488;BME280;73424;49.994;8.184;2024-03-29T00:16:21;98134.06;;;5.37;80.07
83488;BME280;73424;49.994;8.184;2024-03-29T00:18:50;98123.88;;;5.40;79.26
83488;BME280;73424;49.994;8.184;2024-03-29T00:21:15;98111.69;;;5.33;79.25
83488;BME280;73424;49.994;8.184;2024-03-29T00:23:40;98117.75;;;5.46;79.21
83488;BME280;73424;49.994;8.184;2024-03-29T00:26:06;98103.72;;;5.39;79.12
83488;BME280;73424;49.994;8.184;2024-03-29T00:28:32;98097.00;;;5.43;78.75
83488;BME280;73424;49.994;8.184;2024-03-29T00:30:57;98117.44;;;5.61;78.97
83488;BME280;73424;49.994;8.184;2024-03-29T00:33:23;98081.66;;;5.59;79.35
83488;BME280;73424;49.994;8.184;2024-03-29T00:35:49;98095.88;;;5.58;78.56
83488;BME280;73424;49.994;8.184;2024-03-29T00:38:14;98102.53;;;5.67;78.50
83488;BME280;73424;49.994;8.184;2024-03-29T00:40:40;98080.28;;;5.49;78.70
83488;BME280;73424;49.994;8.184;2024-03-29T00:43:05;98092.81;;;5.61;78.30
83488;BME280;73424;49.994;8.184;2024-03-29T00:45:30;98107.72;;;5.86;77.90
83488;BME280;73424;49.994;8.184;2024-03-29T00:47:55;98089.16;;;5.93;77.53
83488;BME280;73424;49.994;8.184;2024-03-29T00:50:21;98093.44;;;6.12;76.85
83488;BME280;73424;49.994;8.184;2024-03-29T00:52:46;98066.34;;;5.92;78.10
83488;BME280;73424;49.994;8.184;2024-03-29T00:55:13;98059.97;;;5.75;77.54
83488;BME280;73424;49.994;8.184;2024-03-29T00:57:38;98078.19;;;5.83;78.40
83488;BME280;73424;49.994;8.184;2024-03-29T01:00:05;98073.97;;;5.75;79.08
83488;BME280;73424;49.994;8.184;2024-03-29T01:02:30;98066.19;;;5.87;78.68
83488;BME280;73424;49.994;8.184;2024-03-29T01:04:55;98082.34;;;6.22;78.34
83488;BME280;73424;49.994;8.184;2024-03-29T01:07:20;98063.25;;;6.20;78.26
83488;BME280;73424;49.994;8.184;2024-03-29T01:09:46;98099.19;;;6.27;78.26
83488;BME280;73424;49.994;8.184;2024-03-29T01:12:11;98078.69;;;6.41;78.77
83488;BME280;73424;49.994;8.184;2024-03-29T01:14:37;98047.88;;;6.28;78.26
83488;BME280;73424;49.994;8.184;2024-03-29T01:17:02;98084.81;;;6.60;77.03
83488;BME280;73424;49.994;8.184;2024-03-29T01:19:27;98077.25;;;6.45;77.76
83488;BME280;73424;49.994;8.184;2024-03-29T01:21:53;98058.38;;;6.17;78.97
83488;BME280;73424;49.994;8.184;2024-03-29T01:24:18;98035.66;;;6.27;78.65
83488;BME280;73424;49.994;8.184;2024-03-29T01:26:43;98079.53;;;6.60;78.35
83488;BME280;73424;49.994;8.184;2024-03-29T01:29:09;98063.00;;;6.57;77.94
83488;BME280;73424;49.994;8.184;2024-03-29T01:31:36;98057.00;;;6.50;77.66
83488;BME280;73424;49.994;8.184;2024-03-29T01:34:01;98064.00;;;6.45;78.14
83488;BME280;73424;49.994;8.184;2024-03-29T01:36:28;97999.41;;;6.28;77.60
83488;BME280;73424;49.994;8.184;2024-03-29T01:38:53;98032.84;;;6.58;77.25
83488;BME280;73424;49.994;8.184;2024-03-29T01:41:22;98013.44;;;6.46;77.36
83488;BME280;73424;49.994;8.184;2024-03-29T01:43:48;97996.13;;;6.62;76.23
83488;BME280;73424;49.994;8.184;2024-03-29T01:46:13;98027.69;;;6.82;75.16
83488;BME280;73424;49.994;8.184;2024-03-29T01:48:39;98020.84;;;6.74;75.97
83488;BME280;73424;49.994;8.184;2024-03-29T01:51:04;98020.19;;;6.61;76.64
83488;BME280;73424;49.994;8.184;2024-03-29T01:53:30;98018.44;;;6.73;77.11
83488;BME280;73424;49.994;8.184;2024-03-29T01:55:56;98000.63;;;6.62;76.82
83488;BME280;73424;49.994;8.184;2024-03-29T01:58:23;98031.00;;;6.77;76.43
83488;BME280;73424;49.994;8.184;2024-03-29T02:00:53;98016.06;;;6.65;76.89
83488;BME280;73424;49.994;8.184;2024-03-29T02:03:20;98047.56;;;6.54;78.01
83488;BME280;73424;49.994;8.184;2024-03-29T02:05:47;98058.47;;;6.46;78.63
83488;BME280;73424;49.994;8.184;2024-03-29T02:08:13;98062.44;;;6.55;78.23
83488;BME280;73424;49.994;8.184;2024-03-29T02:10:39;97982.88;;;6.14;78.14
83488;BME280;73424;49.994;8.184;2024-03-29T02:13:04;98064.28;;;6.37;78.68
83488;BME280;73424;49.994;8.184;2024-03-29T02:15:30;98071.94;;;6.27;79.30
83488;BME280;73424;49.994;8.184;2024-03-29T02:17:56;98096.06;;;6.37;78.50
83488;BME280;73424;49.994;8.184;2024-03-29T02:20:22;98067.88;;;6.24;78.71
83488;BME280;73424;49.994;8.184;2024-03-29T02:22:55;98085.53;;;6.48;78.08
83488;BME280;73424;49.994;8.184;2024-03-29T02:25:22;98037.59;;;6.38;78.18
83488;BME280;73424;49.994;8.184;2024-03-29T02:27:48;98048.44;;;6.48;78.01
83488;BME280;73424;49.994;8.184;2024-03-29T02:30:16;98073.38;;;6.95;77.30
83488;BME280;73424;49.994;8.184;2024-03-29T02:32:41;98021.50;;;6.70;77.38
83488;BME280;73424;49.994;8.184;2024-03-29T02:35:07;98043.47;;;6.88;76.45
83488;BME280;73424;49.994;8.184;2024-03-29T02:37:32;98034.44;;;6.96;76.87
83488;BME280;73424;49.994;8.184;2024-03-29T02:39:58;98028.13;;;6.79;77.49
83488;BME280;73424;49.994;8.184;2024-03-29T02:42:23;98036.72;;;6.92;77.27
83488;BME280;73424;49.994;8.184;2024-03-29T02:44:48;98062.28;;;7.17;77.82
83488;BME280;73424;49.994;8.184;2024-03-29T02:47:13;98039.69;;;7.14;77.59
83488;BME280;73424;49.994;8.184;2024-03-29T02:49:39;97981.06;;;6.92;76.81
83488;BME280;73424;49.994;8.184;2024-03-29T02:52:04;97973.13;;;7.04;77.55
83488;BME280;73424;49.994;8.184;2024-03-29T02:54:29;98007.13;;;7.07;77.34
83488;BME280;73424;49.994;8.184;2024-03-29T02:56:55;97981.47;;;7.19;76.28
83488;BME280;73424;49.994;8.184;2024-03-29T02:59:20;97987.22;;;7.16;75.91
83488;BME280;73424;49.994;8.184;2024-03-29T03:01:45;98015.78;;;7.55;76.05
83488;BME280;73424;49.994;8.184;2024-03-29T03:04:10;98011.28;;;7.56;74.66
83488;BME280;73424;49.994;8.184;2024-03-29T03:06:36;98034.06;;;7.75;77.78
83488;BME280;73424;49.994;8.184;2024-03-29T03:09:01;98036.78;;;7.45;78.55
83488;BME280;73424;49.994;8.184;2024-03-29T03:11:45;98081.81;;;7.63;77.63
83488;BME280;73424;49.994;8.184;2024-03-29T03:14:10;98086.31;;;7.63;78.08
83488;BME280;73424;49.994;8.184;2024-03-29T03:16:35;98080.75;;;7.64;77.83
83488;BME280;73424;49.994;8.184;2024-03-29T03:19:01;98074.88;;;7.74;76.86
83488;BME280;73424;49.994;8.184;2024-03-29T03:21:26;98041.53;;;7.66;77.31
83488;BME280;73424;49.994;8.184;2024-03-29T03:23:51;98064.06;;;7.99;76.93
83488;BME280;73424;49.994;8.184;2024-03-29T03:26:16;98034.88;;;7.76;77.52
83488;BME280;73424;49.994;8.184;2024-03-29T03:28:42;98067.06;;;7.91;78.01
83488;BME280;73424;49.994;8.184;2024-03-29T03:31:07;98063.25;;;7.87;76.53
83488;BME280;73424;49.994;8.184;2024-03-29T03:33:32;98057.22;;;7.68;77.53
83488;BME280;73424;49.994;8.184;2024-03-29T03:35:58;98066.13;;;7.74;77.59
83488;BME280;73424;49.994;8.184;2024-03-29T03:38:23;97999.28;;;7.53;78.37
83488;BME280;73424;49.994;8.184;2024-03-29T03:40:48;98045.59;;;7.69;79.44
83488;BME280;73424;49.994;8.184;2024-03-29T03:43:13;98054.00;;;7.78;76.84
83488;BME280;73424;49.994;8.184;2024-03-29T03:45:39;98031.50;;;7.68;78.37
83488;BME280;73424;49.994;8.184;2024-03-29T03:48:06;98045.47;;;7.76;78.39
83488;BME280;73424;49.994;8.184;2024-03-29T03:50:32;98059.34;;;8.01;75.28
83488;BME280;73424;49.994;8.184;2024-03-29T03:52:57;98069.72;;;8.14;76.00
83488;BME280;73424;49.994;8.184;2024-03-29T03:55:23;98043.41;;;7.78;77.31
83488;BME280;73424;49.994;8.184;2024-03-29T03:57:48;98088.19;;;7.86;79.72
83488;BME280;73424;49.994;8.184;2024-03-29T04:00:14;98075.75;;;7.98;79.30
83488;BME280;73424;49.994;8.184;2024-03-29T04:02:39;98055.75;;;7.95;77.56
83488;BME280;73424;49.994;8.184;2024-03-29T04:05:04;98066.97;;;8.09;78.83
83488;BME280;73424;49.994;8.184;2024-03-29T04:07:30;98059.81;;;7.98;78.84
83488;BME280;73424;49.994;8.184;2024-03-29T04:09:55;98037.72;;;7.74;80.84
83488;BME280;73424;49.994;8.184;2024-03-29T04:12:20;97995.25;;;7.62;79.87
83488;BME280;73424;49.994;8.184;2024-03-29T04:14:46;98015.56;;;7.68;80.41
83488;BME280;73424;49.994;8.184;2024-03-29T04:17:11;98005.88;;;7.62;79.70
83488;BME280;73424;49.994;8.184;2024-03-29T04:19:37;97967.34;;;7.48;80.86
83488;BME280;73424;49.994;8.184;2024-03-29T04:22:02;98023.88;;;7.60;81.47
83488;BME280;73424;49.994;8.184;2024-03-29T04:24:28;98030.47;;;7.70;81.88
83488;BME280;73424;49.994;8.184;2024-03-29T04:26:53;98013.25;;;7.49;80.66
83488;BME280;73424;49.994;8.184;2024-03-29T04:29:18;98017.16;;;7.46;82.14
83488;BME280;73424;49.994;8.184;2024-03-29T04:31:45;98023.19;;;7.65;81.07
83488;BME280;73424;49.994;8.184;2024-03-29T04:34:10;98026.19;;;7.57;81.97
83488;BME280;73424;49.994;8.184;2024-03-29T04:36:36;98009.34;;;7.63;82.07
83488;BME280;73424;49.994;8.184;2024-03-29T04:39:01;98011.75;;;7.64;81.82
83488;BME280;73424;49.994;8.184;2024-03-29T04:41:26;98014.34;;;7.83;82.03
83488;BME280;73424;49.994;8.184;2024-03-29T04:43:52;97975.66;;;7.52;82.27
83488;BME280;73424;49.994;8.184;2024-03-29T04:46:17;97976.69;;;7.51;82.51
83488;BME280;73424;49.994;8.184;2024-03-29T04:48:43;97973.69;;;7.47;81.57
83488;BME280;73424;49.994;8.184;2024-03-29T04:51:11;98007.88;;;7.79;81.45
83488;BME280;73424;49.994;8.184;2024-03-29T04:53:36;98001.38;;;7.63;82.77
83488;BME280;73424;49.994;8.184;2024-03-29T04:56:02;98010.28;;;7.80;80.70
83488;BME280;73424;49.994;8.184;2024-03-29T04:58:28;98012.59;;;7.77;82.13
83488;BME280;73424;49.994;8.184;2024-03-29T05:00:54;97991.22;;;7.72;79.96
83488;BME280;73424;49.994;8.184;2024-03-29T05:03:20;97956.38;;;7.56;81.23
83488;BME280;73424;49.994;8.184;2024-03-29T05:05:46;97981.66;;;7.94;77.48
83488;BME280;73424;49.994;8.184;2024-03-29T05:08:11;97975.06;;;7.96;76.92
83488;BME280;73424;49.994;8.184;2024-03-29T05:10:37;97997.00;;;8.15;76.54
83488;BME280;73424;49.994;8.184;2024-03-29T05:13:02;97926.84;;;7.64;77.80
83488;BME280;73424;49.994;8.184;2024-03-29T05:15:28;98015.69;;;8.20;76.90
83488;BME280;73424;49.994;8.184;2024-03-29T05:17:54;98011.31;;;8.37;77.07
83488;BME280;73424;49.994;8.184;2024-03-29T05:20:19;97993.97;;;8.46;76.87
83488;BME280;73424;49.994;8.184;2024-03-29T05:22:44;97994.31;;;8.38;77.58
83488;BME280;73424;49.994;8.184;2024-03-29T05:25:10;98007.81;;;8.48;78.77
83488;BME280;73424;49.994;8.184;2024-03-29T05:27:35;97986.97;;;8.29;77.84
83488;BME280;73424;49.994;8.184;2024-03-29T05:30:01;97983.94;;;8.25;78.33
83488;BME280;73424;49.994;8.184;2024-03-29T05:32:28;98028.59;;;8.51;78.99
83488;BME280;73424;49.994;8.184;2024-03-29T05:34:53;98025.38;;;8.49;79.59
83488;BME280;73424;49.994;8.184;2024-03-29T05:37:19;98025.41;;;8.38;78.98
83488;BME280;73424;49.994;8.184;2024-03-29T05:39:44;98045.75;;;8.44;80.38
83488;BME280;73424;49.994;8.184;2024-03-29T05:42:09;98032.66;;;8.42;79.13
83488;BME280;73424;49.994;8.184;2024-03-29T05:44:35;98036.16;;;8.31;80.84
83488;BME280;73424;49.994;8.184;2024-03-29T05:47:01;98067.06;;;8.60;80.64
83488;BME280;73424;49.994;8.184;2024-03-29T05:49:29;98028.88;;;8.15;81.56
83488;BME280;73424;49.994;8.184;2024-03-29T05:51:54;98047.25;;;8.28;81.50
83488;BME280;73424;49.994;8.184;2024-03-29T05:54:19;98029.09;;;8.25;81.63
83488;BME280;73424;49.994;8.184;2024-03-29T05:56:45;98043.19;;;8.37;81.35
83488;BME280;73424;49.994;8.184;2024-03-29T05:59:10;98070.69;;;8.31;82.23
83488;BME280;73424;49.994;8.184;2024-03-29T06:01:37;98061.56;;;8.39;81.80
83488;BME280;73424;49.994;8.184;2024-03-29T06:04:02;98073.91;;;8.33;82.38
83488;BME280;73424;49.994;8.184;2024-03-29T06:06:31;98073.19;;;8.26;84.00
83488;BME280;73424;49.994;8.184;2024-03-29T06:08:57;98081.19;;;8.49;83.15
83488;BME280;73424;49.994;8.184;2024-03-29T06:11:22;98046.41;;;8.39;82.52
83488;BME280;73424;49.994;8.184;2024-03-29T06:13:48;98046.44;;;8.28;81.82
83488;BME280;73424;49.994;8.184;2024-03-29T06:16:16;98067.69;;;8.39;82.11
83488;BME280;73424;49.994;8.184;2024-03-29T06:19:00;98081.97;;;8.61;83.18
83488;BME280;73424;49.994;8.184;2024-03-29T06:21:25;98078.25;;;8.62;81.95
83488;BME280;73424;49.994;8.184;2024-03-29T06:23:51;98084.97;;;8.53;81.46
83488;BME280;73424;49.994;8.184;2024-03-29T06:26:16;98069.88;;;8.42;82.30
83488;BME280;73424;49.994;8.184;2024-03-29T06:28:41;98065.78;;;8.63;82.71
83488;BME280;73424;49.994;8.184;2024-03-29T06:31:06;98087.06;;;8.51;83.15
83488;BME280;73424;49.994;8.184;2024-03-29T06:33:32;98040.66;;;8.42;82.41
83488;BME280;73424;49.994;8.184;2024-03-29T06:35:57;98087.03;;;8.74;82.26
83488;BME280;73424;49.994;8.184;2024-03-29T06:38:22;98064.97;;;8.74;81.79
83488;BME280;73424;49.994;8.184;2024-03-29T06:40:47;98052.28;;;8.64;80.97
83488;BME280;73424;49.994;8.184;2024-03-29T06:43:13;98068.63;;;8.85;81.19
83488;BME280;73424;49.994;8.184;2024-03-29T06:45:41;98045.50;;;8.85;81.34
83488;BME280;73424;49.994;8.184;2024-03-29T06:48:10;98096.28;;;9.12;81.16
83488;BME280;73424;49.994;8.184;2024-03-29T06:50:36;98055.69;;;8.88;81.70
83488;BME280;73424;49.994;8.184;2024-03-29T06:53:02;98075.66;;;8.91;81.18
83488;BME280;73424;49.994;8.184;2024-03-29T06:55:27;98079.38;;;8.90;81.86
83488;BME280;73424;49.994;8.184;2024-03-29T06:57:52;98066.19;;;8.95;81.68
83488;BME280;73424;49.994;8.184;2024-03-29T07:00:18;98062.97;;;8.93;81.96
83488;BME280;73424;49.994;8.184;2024-03-29T07:02:43;98036.97;;;8.83;82.92
83488;BME280;73424;49.994;8.184;2024-03-29T07:05:09;98092.22;;;9.21;81.04
83488;BME280;73424;49.994;8.184;2024-03-29T07:07:36;98087.22;;;9.24;81.56
83488;BME280;73424;49.994;8.184;2024-03-29T07:10:02;98077.88;;;9.22;82.29
83488;BME280;73424;49.994;8.184;2024-03-29T07:12:27;98066.84;;;9.30;81.47
83488;BME280;73424;49.994;8.184;2024-03-29T07:14:53;98057.06;;;9.19;82.07
83488;BME280;73424;49.994;8.184;2024-03-29T07:17:18;98097.72;;;9.31;82.52
83488;BME280;73424;49.994;8.184;2024-03-29T07:19:43;98093.59;;;9.52;81.98
83488;BME280;73424;49.994;8.184;2024-03-29T07:22:09;98100.00;;;9.67;82.28
83488;BME280;73424;49.994;8.184;2024-03-29T07:24:34;98097.13;;;9.57;82.17
83488;BME280;73424;49.994;8.184;2024-03-29T07:26:59;98099.00;;;9.57;83.21
83488;BME280;73424;49.994;8.184;2024-03-29T07:29:24;98096.34;;;9.57;82.73
83488;BME280;73424;49.994;8.184;2024-03-29T07:31:50;98056.16;;;9.58;82.30
83488;BME280;73424;49.994;8.184;2024-03-29T07:34:15;98069.97;;;9.89;81.85
83488;BME280;73424;49.994;8.184;2024-03-29T07:36:41;98078.84;;;10.27;81.10
83488;BME280;73424;49.994;8.184;2024-03-29T07:39:06;98065.53;;;10.27;80.82
83488;BME280;73424;49.994;8.184;2024-03-29T07:41:31;98068.13;;;10.39;81.54
83488;BME280;73424;49.994;8.184;2024-03-29T07:43:57;98062.91;;;10.49;81.53
83488;BME280;73424;49.994;8.184;2024-03-29T07:46:31;98074.00;;;10.41;82.49
83488;BME280;73424;49.994;8.184;2024-03-29T07:48:56;98059.88;;;10.07;82.80
83488;BME280;73424;49.994;8.184;2024-03-29T07:51:22;98044.16;;;10.06;82.23
83488;BME280;73424;49.994;8.184;2024-03-29T07:53:47;98077.00;;;10.28;81.41
83488;BME280;73424;49.994;8.184;2024-03-29T07:56:12;97985.66;;;9.61;82.63
83488;BME280;73424;49.994;8.184;2024-03-29T07:58:38;98014.69;;;9.79;82.25
83488;BME280;73424;49.994;8.184;2024-03-29T08:01:03;98071.91;;;10.10;81.42
83488;BME280;73424;49.994;8.184;2024-03-29T08:03:28;98065.88;;;9.81;82.27
83488;BME280;73424;49.994;8.184;2024-03-29T08:06:03;98066.75;;;9.87;82.48
83488;BME280;73424;49.994;8.184;2024-03-29T08:08:30;98050.31;;;9.90;82.49
83488;BME280;73424;49.994;8.184;2024-03-29T08:10:55;98058.03;;;10.08;81.94
83488;BME280;73424;49.994;8.184;2024-03-29T08:13:21;98078.16;;;10.32;81.52
83488;BME280;73424;49.994;8.184;2024-03-29T08:15:47;98092.88;;;10.18;83.32
83488;BME280;73424;49.994;8.184;2024-03-29T08:18:13;98092.34;;;9.88;84.14
83488;BME280;73424;49.994;8.184;2024-03-29T08:20:38;98076.75;;;9.79;83.89
83488;BME280;73424;49.994;8.184;2024-03-29T08:23:03;98105.50;;;10.11;83.24
83488;BME280;73424;49.994;8.184;2024-03-29T08:25:29;98062.81;;;9.89;82.85
83488;BME280;73424;49.994;8.184;2024-03-29T08:27:54;98103.53;;;10.18;83.87
83488;BME280;73424;49.994;8.184;2024-03-29T08:30:29;98089.25;;;10.12;83.00
83488;BME280;73424;49.994;8.184;2024-03-29T08:33:00;98095.59;;;10.23;82.32
83488;BME280;73424;49.994;8.184;2024-03-29T08:35:28;98102.38;;;10.14;83.13
83488;BME280;73424;49.994;8.184;2024-03-29T08:37:53;98105.84;;;10.31;83.10
83488;BME280;73424;49.994;8.184;2024-03-29T08:40:18;98086.31;;;10.09;83.88
83488;BME280;73424;49.994;8.184;2024-03-29T08:42:43;98114.19;;;10.18;83.60
83488;BME280;73424;49.994;8.184;2024-03-29T08:45:09;98121.59;;;10.32;84.23
83488;BME280;73424;49.994;8.184;2024-03-29T08:47:35;98120.47;;;10.45;83.55
83488;BME280;73424;49.994;8.184;2024-03-29T08:50:00;98102.44;;;10.35;83.23
83488;BME280;73424;49.994;8.184;2024-03-29T08:52:25;98067.25;;;10.17;82.65
83488;BME280;73424;49.994;8.184;2024-03-29T08:54:51;98131.91;;;10.62;82.98
83488;BME280;73424;49.994;8.184;2024-03-29T08:57:16;98125.72;;;10.78;81.65
83488;BME280;73424;49.994;8.184;2024-03-29T08:59:42;98138.88;;;10.85;83.20
83488;BME280;73424;49.994;8.184;2024-03-29T09:02:07;98116.81;;;10.51;81.41
83488;BME280;73424;49.994;8.184;2024-03-29T09:04:33;98118.34;;;10.85;80.86
83488;BME280;73424;49.994;8.184;2024-03-29T09:07:02;98154.97;;;11.12;81.18
83488;BME280;73424;49.994;8.184;2024-03-29T09:09:33;98128.38;;;10.78;80.52
83488;BME280;73424;49.994;8.184;2024-03-29T09:11:59;98136.78;;;10.87;79.89
83488;BME280;73424;49.994;8.184;2024-03-29T09:14:24;98167.56;;;11.38;79.60
83488;BME280;73424;49.994;8.184;2024-03-29T09:16:50;98148.78;;;11.28;80.08
83488;BME280;73424;49.994;8.184;2024-03-29T09:19:15;98131.56;;;11.67;78.32
83488;BME280;73424;49.994;8.184;2024-03-29T09:21:41;98168.75;;;11.95;78.96
83488;BME280;73424;49.994;8.184;2024-03-29T09:24:07;98173.66;;;12.09;79.07
83488;BME280;73424;49.994;8.184;2024-03-29T09:26:33;98164.16;;;11.91;77.83
83488;BME280;73424;49.994;8.184;2024-03-29T09:28:58;98151.19;;;11.78;78.01
83488;BME280;73424;49.994;8.184;2024-03-29T09:31:23;98168.81;;;11.52;79.43
83488;BME280;73424;49.994;8.184;2024-03-29T09:33:49;98154.72;;;11.35;80.61
83488;BME280;73424;49.994;8.184;2024-03-29T09:36:20;98165.31;;;11.73;79.46
83488;BME280;73424;49.994;8.184;2024-03-29T09:38:48;98160.56;;;11.80;79.83
83488;BME280;73424;49.994;8.184;2024-03-29T09:41:15;98188.34;;;11.58;79.09
83488;BME280;73424;49.994;8.184;2024-03-29T09:43:42;98183.69;;;11.48;79.54
83488;BME280;73424;49.994;8.184;2024-03-29T09:46:08;98184.66;;;11.59;79.36
83488;BME280;73424;49.994;8.184;2024-03-29T09:48:34;98186.13;;;11.50;78.95
83488;BME280;73424;49.994;8.184;2024-03-29T09:51:06;98185.31;;;11.92;78.67
83488;BME280;73424;49.994;8.184;2024-03-29T09:53:36;98184.88;;;12.06;77.76
83488;BME280;73424;49.994;8.184;2024-03-29T09:56:05;98133.09;;;11.58;77.86
83488;BME280;73424;49.994;8.184;2024-03-29T09:58:32;98209.47;;;11.81;80.47
83488;BME280;73424;49.994;8.184;2024-03-29T10:00:58;98173.88;;;12.02;77.56
83488;BME280;73424;49.994;8.184;2024-03-29T10:03:24;98165.91;;;12.07;77.02
83488;BME280;73424;49.994;8.184;2024-03-29T10:05:55;98204.47;;;12.48;75.70
83488;BME280;73424;49.994;8.184;2024-03-29T10:08:21;98167.28;;;12.41;75.48
83488;BME280;73424;49.994;8.184;2024-03-29T10:10:47;98216.31;;;12.57;74.56
83488;BME280;73424;49.994;8.184;2024-03-29T10:13:12;98202.25;;;12.35;73.97
83488;BME280;73424;49.994;8.184;2024-03-29T10:15:37;98209.19;;;12.04;75.54
83488;BME280;73424;49.994;8.184;2024-03-29T10:18:04;98177.94;;;12.05;73.33
83488;BME280;73424;49.994;8.184;2024-03-29T10:20:29;98204.63;;;12.31;74.29
83488;BME280;73424;49.994;8.184;2024-03-29T10:22:55;98207.13;;;12.43;74.52
83488;BME280;73424;49.994;8.184;2024-03-29T10:25:20;98192.94;;;12.42;72.91
83488;BME280;73424;49.994;8.184;2024-03-29T10:27:46;98199.59;;;12.35;71.54
83488;BME280;73424;49.994;8.184;2024-03-29T10:30:11;98160.66;;;11.64;73.49
83488;BME280;73424;49.994;8.184;2024-03-29T10:32:42;98198.38;;;12.21;73.27
83488;BME280;73424;49.994;8.184;2024-03-29T10:35:08;98186.88;;;12.20;72.83
83488;BME280;73424;49.994;8.184;2024-03-29T10:37:34;98196.34;;;12.33;75.55
83488;BME280;73424;49.994;8.184;2024-03-29T10:40:07;98180.00;;;12.29;74.90
83488;BME280;73424;49.994;8.184;2024-03-29T10:42:33;98191.03;;;11.79;76.00
83488;BME280;73424;49.994;8.184;2024-03-29T10:45:00;98168.31;;;12.09;76.09
83488;BME280;73424;49.994;8.184;2024-03-29T10:47:28;98164.25;;;12.70;74.89
83488;BME280;73424;49.994;8.184;2024-03-29T10:49:56;98145.22;;;12.24;73.89
83488;BME280;73424;49.994;8.184;2024-03-29T10:52:22;98136.75;;;12.37;75.41
83488;BME280;73424;49.994;8.184;2024-03-29T10:54:50;98127.47;;;12.13;75.27
83488;BME280;73424;49.994;8.184;2024-03-29T10:57:26;98152.09;;;12.52;74.84
83488;BME280;73424;49.994;8.184;2024-03-29T11:05:02;98146.34;;;12.70;75.54
83488;BME280;73424;49.994;8.184;2024-03-29T11:07:34;98154.47;;;13.37;73.19
83488;BME280;73424;49.994;8.184;2024-03-29T11:10:03;98131.69;;;13.40;73.53
83488;BME280;73424;49.994;8.184;2024-03-29T11:12:39;98118.28;;;13.30;73.81
83488;BME280;73424;49.994;8.184;2024-03-29T11:15:10;98138.16;;;13.44;74.28
83488;BME280;73424;49.994;8.184;2024-03-29T11:17:42;98148.53;;;13.30;73.98
83488;BME280;73424;49.994;8.184;2024-03-29T11:20:08;98153.13;;;13.40;74.69
83488;BME280;73424;49.994;8.184;2024-03-29T11:22:34;98171.56;;;12.84;77.41
83488;BME280;73424;49.994;8.184;2024-03-29T11:25:01;98167.91;;;13.00;76.32
83488;BME280;73424;49.994;8.184;2024-03-29T11:27:26;98170.53;;;12.90;76.68
83488;BME280;73424;49.994;8.184;2024-03-29T11:29:52;98203.34;;;12.76;77.02
83488;BME280;73424;49.994;8.184;2024-03-29T11:32:37;98219.41;;;13.13;77.61
83488;BME280;73424;49.994;8.184;2024-03-29T11:35:04;98214.22;;;12.59;77.83
83488;BME280;73424;49.994;8.184;2024-03-29T11:37:32;98236.38;;;12.91;77.96
83488;BME280;73424;49.994;8.184;2024-03-29T11:40:01;98213.91;;;12.24;79.01
83488;BME280;73424;49.994;8.184;2024-03-29T11:42:47;98204.91;;;12.67;78.56
83488;BME280;73424;49.994;8.184;2024-03-29T11:45:12;98213.00;;;13.14;78.31
83488;BME280;73424;49.994;8.184;2024-03-29T11:47:41;98209.88;;;13.32;78.81
83488;BME280;73424;49.994;8.184;2024-03-29T11:50:08;98202.91;;;13.26;79.05
83488;BME280;73424;49.994;8.184;2024-03-29T11:52:34;98204.78;;;12.88;78.44
83488;BME280;73424;49.994;8.184;2024-03-29T11:54:59;98161.03;;;12.68;78.13
83488;BME280;73424;49.994;8.184;2024-03-29T11:57:24;98203.13;;;12.77;79.68
83488;BME280;73424;49.994;8.184;2024-03-29T11:59:50;98156.53;;;11.56;82.29
83488;BME280;73424;49.994;8.184;2024-03-29T12:02:15;98229.88;;;12.14;84.20
83488;BME280;73424;49.994;8.184;2024-03-29T12:04:41;98239.72;;;12.40;81.77
83488;BME280;73424;49.994;8.184;2024-03-29T12:07:06;98219.88;;;12.63;80.79
83488;BME280;73424;49.994;8.184;2024-03-29T12:09:32;98212.88;;;12.57;81.72
83488;BME280;73424;49.994;8.184;2024-03-29T12:11:57;98221.66;;;12.52;83.43
83488;BME280;73424;49.994;8.184;2024-03-29T12:14:25;98199.31;;;12.68;83.04
83488;BME280;73424;49.994;8.184;2024-03-29T12:16:52;98207.28;;;12.63;83.37
83488;BME280;73424;49.994;8.184;2024-03-29T12:19:25;98175.13;;;12.95;82.58
83488;BME280;73424;49.994;8.184;2024-03-29T12:21:52;98170.16;;;13.14;81.97
83488;BME280;73424;49.994;8.184;2024-03-29T12:24:18;98192.44;;;13.24;81.42
83488;BME280;73424;49.994;8.184;2024-03-29T12:26:43;98191.66;;;13.29;82.36
83488;BME280;73424;49.994;8.184;2024-03-29T12:29:09;98186.94;;;13.56;80.74
83488;BME280;73424;49.994;8.184;2024-03-29T12:31:34;98196.25;;;13.38;82.27
83488;BME280;73424;49.994;8.184;2024-03-29T12:33:59;98204.44;;;13.12;83.20
83488;BME280;73424;49.994;8.184;2024-03-29T12:36:25;98200.56;;;12.97;82.96
83488;BME280;73424;49.994;8.184;2024-03-29T12:38:55;98190.59;;;13.30;81.99
83488;BME280;73424;49.994;8.184;2024-03-29T12:41:23;98224.47;;;13.61;82.27
83488;BME280;73424;49.994;8.184;2024-03-29T12:43:50;98217.31;;;13.15;82.73
83488;BME280;73424;49.994;8.184;2024-03-29T12:46:17;98223.28;;;13.37;83.47
83488;BME280;73424;49.994;8.184;2024-03-29T12:48:43;98254.50;;;13.63;82.36
83488;BME280;73424;49.994;8.184;2024-03-29T12:51:08;98243.16;;;13.46;83.11
83488;BME280;73424;49.994;8.184;2024-03-29T12:53:33;98213.16;;;13.44;81.97
83488;BME280;73424;49.994;8.184;2024-03-29T12:55:59;98236.22;;;13.45;82.18
83488;BME280;73424;49.994;8.184;2024-03-29T12:58:24;98203.47;;;13.33;82.01
83488;BME280;73424;49.994;8.184;2024-03-29T13:00:50;98225.94;;;13.32;83.45
83488;BME280;73424;49.994;8.184;2024-03-29T13:03:15;98262.56;;;13.73;83.24
83488;BME280;73424;49.994;8.184;2024-03-29T13:05:41;98270.16;;;13.96;82.61
83488;BME280;73424;49.994;8.184;2024-03-29T13:08:11;98268.31;;;13.97;82.61